CYFT

Makkovik Airport

Makkovik, Canada
METAR CYFT 201500Z 27024G31KT 15SM DRSN SKC M28/M34 A3036 RMK SLP294
Observed Flight Rules
Feb-20 @ 15:00 UTC (2 hours ago) Visual Flight Rules
Wind Visibility Clouds Conditions
270° at 24 knots
 Gusting to 31 knots
15 miles
  • Clear skies
  • Low drifting
  • Snow
Temperatures Readings
Current -28°C / -18°F
Dewpoint -34°C / -29°F
Humidity 56%
Altimeter 30.36" Hg
Pressure 1029.4 hPa
Elevation 71
METAR CYFT 201500Z 27024G31KT 15SM DRSN SKC M28/M34 A3036 RMK SLP294
Observed Flight Rules
Feb-20 @ 15:00 UTC
(2 hours ago)
VFR
Wind Visibility
270° at 24 knots
 Gusting to 31 knots
15 miles
Clouds
  • Clear skies
Conditions
  • Low drifting
  • Snow
Temperature Dewpoint
-28°C / -18°F -34°C / -29°F
Humidity Altimeter Pressure
56% 30.36" Hg 1029.4 hPa